首页
METAR-TAF:

METAR-TAF

机场 :

Woensdrecht, 荷兰

纬度: 51-27N, 经度: 004-20E, 海拔: 20米

当前天气观测

该预报发布于21分钟前的22:25 UTC
风速8节,风向北转东北,在北转西北东转东北之间变化
温度 17°C
湿度 82%
气压 1027 hPa
能见度10公里或以上

METAR: EHWO 262225Z AUTO 03008KT 340V070 9999 NCD 17/14 Q1027 BLU

时间: 00:46 (22:46 UTC)

预报

该预报发布于14小时和35分钟前的08:11 UTC
预报有效从26日的 09点(UTC)到 26日的 21点(UTC)
风速5节,风向北转西北
能見度: 8000
阴天层高于900英尺
成为
从 26日的 09点(UTC)到 26日的 12点(UTC)
少量云层高于2500英尺
成为
从 26日的 11点(UTC)到 26日的 14点(UTC)
风速10节,风向北转东北,有时为20节阵风

TAF: EHWO 260811Z 2609/2621 33005KT 8000 OVC009 BECMG 2609/2612 FEW025 BECMG 2611/2614 03010G20KT

超过4000个机场的气象观测和天气预报(METAR&TAF报告)。

可查询的气象台以黄色和红色小点在地图上表示。

将鼠标移到小点上方,可查看气象台名称。

然后点击查看天气观测和预报。

如需切换地图:点击带黑十字的绿色按钮放大地图;点击带横线的绿色按钮缩小地图;或者点击绿色箭头查看邻近地区的地图。


METAR-TAF: